Time;durP1;ratioP1;P1;durP2;ratioP2;P2;SDS_P1;SDS_P2;PMS_P1;PMS_P2;Temp;Humidity;BMP_temperature;BMP_pressure;BME280_temperature;BME280_humidity;BME280_pressure;Samples;Min_cycle;Max_cycle;Signal;HPM_P1;HPM_P2
2023/07/26 00:00:18;;;;;;;;;;;;;;;22.72;54.32;100273.50;4968077;28;4044;-73
2023/07/26 00:02:44;;;;;;;;;;;;;;;22.72;54.15;100273.50;4965022;28;4124;-73
2023/07/26 00:05:11;;;;;;;;;;;;;;;22.71;53.91;100280.69;4965487;28;5241;-73
2023/07/26 00:07:37;;;;;;;;;;;;;;;22.71;54.17;100269.16;4963763;28;4189;-73
2023/07/26 00:10:04;;;;;;;;;;;;;;;22.71;53.87;100269.16;4968996;28;3936;-74
2023/07/26 00:12:30;;;;;;;;;;;;;;;22.71;54.00;100275.66;4961710;28;4057;-72
2023/07/26 00:14:57;;;;;;;;;;;;;;;22.70;54.01;100276.31;4961435;28;4037;-72
2023/07/26 00:17:23;;;;;;;;;;;;;;;22.72;54.17;100287.91;4966698;28;4258;-72
2023/07/26 00:19:49;;;;;;;;;;;;;;;22.70;53.92;100284.97;4964913;28;4970;-72
2023/07/26 00:22:16;;;;;;;;;;;;;;;22.71;53.91;100286.47;4967357;28;4119;-72
2023/07/26 00:24:42;;;;;;;;;;;;;;;22.71;53.87;100286.47;4968184;28;4135;-72
2023/07/26 00:27:09;;;;;;;;;;;;;;;22.70;54.10;100287.84;4963618;28;4011;-72
2023/07/26 00:29:35;;;;;;;;;;;;;;;22.70;54.00;100285.72;4966642;28;4168;-72
2023/07/26 00:32:01;;;;;;;;;;;;;;;22.70;53.95;100287.84;4968191;28;4206;-72
2023/07/26 00:34:28;;;;;;;;;;;;;;;22.68;54.17;100285.69;4984168;28;4382;-72
2023/07/26 00:36:55;;;;;;;;;;;;;;;22.69;54.22;100290.00;4969315;28;4187;-72
2023/07/26 00:39:21;;;;;;;;;;;;;;;22.68;53.97;100287.84;4968908;28;4516;-72
2023/07/26 00:41:47;;;;;;;;;;;;;;;22.68;53.84;100294.31;4963801;28;4132;-72
2023/07/26 00:44:14;;;;;;;;;;;;;;;22.66;54.08;100297.16;4981581;28;4033;-72
2023/07/26 00:46:40;;;;;;;;;;;;;;;22.68;54.15;100293.59;4980060;28;4216;-72
2023/07/26 00:49:07;;;;;;;;;;;;;;;22.66;54.25;100296.44;4970262;28;4087;-72
2023/07/26 00:51:35;;;;;;;;;;;;;;;22.66;54.07;100302.94;4962287;28;4059;-72
2023/07/26 00:54:03;;;;;;;;;;;;;;;22.67;54.13;100297.88;4967913;28;4141;-72
2023/07/26 00:56:30;;;;;;;;;;;;;;;22.66;54.23;100302.19;4968504;28;5008;-71
2023/07/26 00:58:57;;;;;;;;;;;;;;;22.65;54.12;100300.72;4963871;28;4118;-72
2023/07/26 01:01:23;;;;;;;;;;;;;;;22.65;53.86;100300.72;4966783;28;3997;-72
2023/07/26 01:03:50;;;;;;;;;;;;;;;22.65;54.06;100297.81;4970189;28;4404;-72
2023/07/26 01:06:20;;;;;;;;;;;;;;;22.64;53.98;100299.97;4968039;28;4251;-72
2023/07/26 01:09:05;;;;;;;;;;;;;;;22.65;53.84;100300.72;4985574;28;4129;-72
2023/07/26 01:11:34;;;;;;;;;;;;;;;22.64;54.19;100305.75;4968436;28;5385;-72
2023/07/26 01:14:08;;;;;;;;;;;;;;;22.64;54.09;100316.56;4982917;28;4182;-72
2023/07/26 01:16:34;;;;;;;;;;;;;;;22.65;54.16;100318.03;4983717;28;4183;-72
2023/07/26 01:19:01;;;;;;;;;;;;;;;22.64;53.83;100316.56;4970924;28;4202;-72
2023/07/26 01:21:31;;;;;;;;;;;;;;;22.63;54.08;100315.06;4983658;28;4524;-72
2023/07/26 01:23:58;;;;;;;;;;;;;;;22.62;54.10;100314.34;4969758;28;3968;-72
2023/07/26 01:26:24;;;;;;;;;;;;;;;22.63;54.02;100310.06;4968819;28;4171;-72
2023/07/26 01:28:52;;;;;;;;;;;;;;;22.61;53.83;100307.13;4963706;28;4197;-72
2023/07/26 01:31:19;;;;;;;;;;;;;;;22.61;53.83;100307.13;4966857;28;4029;-72
2023/07/26 01:33:48;;;;;;;;;;;;;;;22.62;54.04;100307.84;4974835;28;4060;-71
2023/07/26 01:36:14;;;;;;;;;;;;;;;22.61;54.12;100315.03;4971366;28;4875;-72
2023/07/26 01:38:41;;;;;;;;;;;;;;;22.61;54.11;100317.91;4967615;28;4044;-72
2023/07/26 01:41:07;;;;;;;;;;;;;;;22.62;54.16;100313.63;4987206;28;4216;-72
2023/07/26 01:43:34;;;;;;;;;;;;;;;22.61;54.08;100309.25;4984657;28;4343;-72
2023/07/26 01:46:00;;;;;;;;;;;;;;;22.61;53.73;100312.13;4975858;28;4107;-71
2023/07/26 01:48:26;;;;;;;;;;;;;;;22.61;54.05;100312.13;4968965;28;5023;-72
2023/07/26 01:50:53;;;;;;;;;;;;;;;22.61;53.99;100312.13;4968556;28;4187;-72
2023/07/26 01:53:19;;;;;;;;;;;;;;;22.60;54.11;100305.63;4970139;28;4138;-72
2023/07/26 01:55:46;;;;;;;;;;;;;;;22.59;53.83;100310.69;4970703;28;4229;-72
2023/07/26 01:58:13;;;;;;;;;;;;;;;22.61;54.02;100318.66;4966349;28;4163;-72
2023/07/26 02:00:39;;;;;;;;;;;;;;;22.59;53.95;100315.72;4968685;28;4180;-72
2023/07/26 02:03:07;;;;;;;;;;;;;;;22.59;54.07;100315.72;4970573;28;4377;-72
2023/07/26 02:05:33;;;;;;;;;;;;;;;22.59;54.17;100327.25;4983571;28;3985;-72
2023/07/26 02:07:59;;;;;;;;;;;;;;;22.59;53.85;100319.34;4968511;28;4132;-72
2023/07/26 02:10:26;;;;;;;;;;;;;;;22.58;53.79;100320.72;4962971;28;4459;-71
2023/07/26 02:12:52;;;;;;;;;;;;;;;22.59;53.86;100330.88;4963297;28;4050;-72
2023/07/26 02:15:20;;;;;;;;;;;;;;;22.57;53.74;100327.94;4965910;28;4191;-72
2023/07/26 02:17:46;;;;;;;;;;;;;;;22.58;53.99;100332.28;4970469;28;4149;-72
2023/07/26 02:20:13;;;;;;;;;;;;;;;22.59;53.90;100328.00;4967442;28;4261;-72
2023/07/26 02:22:40;;;;;;;;;;;;;;;22.57;53.89;100330.81;4975244;28;4047;-72
2023/07/26 02:25:08;;;;;;;;;;;;;;;22.55;53.76;100327.88;4966528;28;4182;-72
2023/07/26 02:27:34;;;;;;;;;;;;;;;22.55;53.77;100324.97;4966802;28;4351;-72
2023/07/26 02:30:01;;;;;;;;;;;;;;;22.56;53.72;100325.72;4966512;28;4258;-73
2023/07/26 02:32:29;;;;;;;;;;;;;;;22.56;53.99;100328.59;4967259;28;4350;-72
2023/07/26 02:34:55;;;;;;;;;;;;;;;22.55;53.68;100339.41;4968643;28;4438;-72
2023/07/26 02:37:22;;;;;;;;;;;;;;;22.56;53.70;100351.69;4968911;28;4139;-72
2023/07/26 02:39:48;;;;;;;;;;;;;;;22.56;53.92;100340.13;4967121;28;4117;-72
2023/07/26 02:42:14;;;;;;;;;;;;;;;22.54;54.05;100351.63;4967939;28;4530;-72
2023/07/26 02:44:41;;;;;;;;;;;;;;;22.53;53.96;100353.03;4968927;28;4142;-72
2023/07/26 02:47:07;;;;;;;;;;;;;;;22.54;53.93;100349.50;4972103;28;4079;-72
2023/07/26 02:49:34;;;;;;;;;;;;;;;22.54;53.95;100349.50;4967077;28;4133;-72
2023/07/26 02:52:00;;;;;;;;;;;;;;;22.54;53.67;100351.63;4967892;28;4068;-72
2023/07/26 02:54:26;;;;;;;;;;;;;;;22.53;53.81;100359.53;4967854;28;4993;-72
2023/07/26 02:56:53;;;;;;;;;;;;;;;22.53;53.86;100362.44;4967670;28;4257;-72
2023/07/26 02:59:19;;;;;;;;;;;;;;;22.54;53.78;100363.91;4971021;28;4209;-72
2023/07/26 03:01:46;;;;;;;;;;;;;;;22.53;53.93;100365.31;4962107;28;4045;-72
2023/07/26 03:04:12;;;;;;;;;;;;;;;22.52;53.96;100372.50;4979121;28;4156;-72
2023/07/26 03:06:42;;;;;;;;;;;;;;;22.53;53.63;100371.09;4964197;28;4158;-72
2023/07/26 03:09:08;;;;;;;;;;;;;;;22.52;53.89;100372.50;4967675;28;4207;-72
2023/07/26 03:11:34;;;;;;;;;;;;;;;22.51;53.68;100371.03;4962874;28;4141;-72
2023/07/26 03:14:01;;;;;;;;;;;;;;;22.51;53.71;100365.25;4969165;28;4243;-72
2023/07/26 03:16:27;;;;;;;;;;;;;;;22.51;53.81;100367.41;4967601;28;4206;-72
2023/07/26 03:18:54;;;;;;;;;;;;;;;22.51;53.58;100376.06;4981985;28;4280;-72
2023/07/26 03:21:20;;;;;;;;;;;;;;;22.51;53.66;100373.91;4964495;28;4242;-72
2023/07/26 03:23:47;;;;;;;;;;;;;;;22.50;53.89;100381.09;4965713;28;4186;-72
2023/07/26 03:26:14;;;;;;;;;;;;;;;22.51;53.70;100379.69;4966138;28;4197;-73
2023/07/26 03:28:41;;;;;;;;;;;;;;;22.51;53.70;100385.44;4965775;28;4135;-72
2023/07/26 03:31:08;;;;;;;;;;;;;;;22.51;53.66;100396.25;4968181;28;4112;-72
2023/07/26 03:33:34;;;;;;;;;;;;;;;22.50;53.85;100398.41;4966658;28;4129;-72
2023/07/26 03:36:01;;;;;;;;;;;;;;;22.50;53.89;100401.31;4982568;28;4096;-72
2023/07/26 03:38:27;;;;;;;;;;;;;;;22.49;53.97;100399.81;4981265;28;4234;-72
2023/07/26 03:40:53;;;;;;;;;;;;;;;22.50;53.64;100389.75;4968028;28;4180;-72
2023/07/26 03:43:20;;;;;;;;;;;;;;;22.48;53.79;100398.34;4966983;28;4184;-72
2023/07/26 03:45:47;;;;;;;;;;;;;;;22.47;53.83;100402.66;4980318;28;4163;-69
2023/07/26 03:48:13;;;;;;;;;;;;;;;22.49;53.70;100399.06;4968154;28;4076;-70
2023/07/26 03:50:40;;;;;;;;;;;;;;;22.49;53.74;100422.16;4967740;28;4294;-70
2023/07/26 03:53:06;;;;;;;;;;;;;;;22.49;53.78;100425.78;4969360;28;4342;-70
2023/07/26 03:55:32;;;;;;;;;;;;;;;22.48;53.85;100427.19;4967993;28;5394;-70
2023/07/26 03:57:59;;;;;;;;;;;;;;;22.47;53.90;100424.97;4964927;28;4068;-70
2023/07/26 04:00:25;;;;;;;;;;;;;;;22.47;53.72;100431.50;4962745;28;4212;-69
2023/07/26 04:02:52;;;;;;;;;;;;;;;22.47;53.95;100431.50;4967673;28;4177;-70
2023/07/26 04:05:18;;;;;;;;;;;;;;;22.47;53.63;100425.75;4968082;28;4121;-70
2023/07/26 04:07:45;;;;;;;;;;;;;;;22.47;53.95;100424.97;4963627;28;4239;-70
2023/07/26 04:10:11;;;;;;;;;;;;;;;22.46;53.75;100424.25;4965590;28;4038;-69
2023/07/26 04:12:37;;;;;;;;;;;;;;;22.46;53.77;100432.91;4967506;28;4208;-70
2023/07/26 04:15:04;;;;;;;;;;;;;;;22.45;53.92;100431.44;4968052;28;4122;-70
2023/07/26 04:17:30;;;;;;;;;;;;;;;22.45;53.91;100431.44;4967035;28;4614;-69
2023/07/26 04:19:57;;;;;;;;;;;;;;;22.46;53.65;100435.06;4967199;28;4049;-70
2023/07/26 04:22:23;;;;;;;;;;;;;;;22.44;53.89;100435.72;4967984;28;4199;-70
2023/07/26 04:24:50;;;;;;;;;;;;;;;22.45;53.97;100445.88;4966960;28;4190;-70
2023/07/26 04:27:16;;;;;;;;;;;;;;;22.46;53.77;100446.59;4967505;28;4032;-70
2023/07/26 04:29:43;;;;;;;;;;;;;;;22.45;53.62;100442.97;4965496;28;4190;-70
2023/07/26 04:32:09;;;;;;;;;;;;;;;22.45;53.64;100445.88;4961998;28;4370;-70
2023/07/26 04:34:35;;;;;;;;;;;;;;;22.45;53.79;100457.41;4967402;28;4188;-70
2023/07/26 04:37:02;;;;;;;;;;;;;;;22.24;53.42;100450.25;4959646;28;4228;-71
2023/07/26 04:39:28;;;;;;;;;;;;;;;22.16;52.80;100450.69;4976358;28;4137;-71
2023/07/26 04:41:54;;;;;;;;;;;;;;;22.24;52.98;100441.59;4971343;28;4179;-71
2023/07/26 04:44:21;;;;;;;;;;;;;;;22.31;52.69;100442.50;4970421;28;4390;-71
2023/07/26 04:46:48;;;;;;;;;;;;;;;22.36;52.78;100438.38;4967494;28;4078;-71
2023/07/26 04:49:14;;;;;;;;;;;;;;;22.41;52.75;100450.78;4969981;28;4047;-71
2023/07/26 04:51:41;;;;;;;;;;;;;;;22.40;52.79;100444.25;4968252;28;4314;-71
2023/07/26 04:54:07;;;;;;;;;;;;;;;22.40;52.97;100443.50;4972071;28;4097;-71
2023/07/26 04:56:33;;;;;;;;;;;;;;;22.42;53.09;100446.47;4971732;28;4194;-71
2023/07/26 04:59:00;;;;;;;;;;;;;;;22.41;52.89;100448.63;4996388;28;4194;-72
2023/07/26 05:01:27;;;;;;;;;;;;;;;22.41;53.28;100448.63;4971407;28;4132;-71
2023/07/26 05:03:53;;;;;;;;;;;;;;;22.41;53.43;100454.38;4968414;28;4385;-71
2023/07/26 05:06:19;;;;;;;;;;;;;;;22.41;53.39;100456.53;4971208;28;4186;-71
2023/07/26 05:08:47;;;;;;;;;;;;;;;22.41;53.53;100456.53;4968899;28;4244;-71
2023/07/26 05:11:14;;;;;;;;;;;;;;;22.40;53.17;100455.06;4968325;28;4322;-71
2023/07/26 05:13:40;;;;;;;;;;;;;;;22.43;53.25;100462.38;4972764;28;4095;-69
2023/07/26 05:16:07;;;;;;;;;;;;;;;22.39;53.44;100465.88;4966846;28;4161;-68
2023/07/26 05:18:33;;;;;;;;;;;;;;;22.27;53.45;100471.25;4966828;28;4119;-73
2023/07/26 05:20:59;;;;;;;;;;;;;;;22.26;53.41;100464.00;4968424;28;4040;-70
2023/07/26 05:23:26;;;;;;;;;;;;;;;22.24;53.01;100461.81;4968851;28;4192;-69
2023/07/26 05:25:52;;;;;;;;;;;;;;;22.24;53.00;100463.94;4970138;28;3967;-69
2023/07/26 05:28:19;;;;;;;;;;;;;;;22.28;53.19;100461.19;4971839;28;4271;-69
2023/07/26 05:30:48;;;;;;;;;;;;;;;22.32;52.66;100459.16;4969301;28;3992;-69
2023/07/26 05:33:15;;;;;;;;;;;;;;;22.37;52.88;100468.69;4970928;28;4195;-69
2023/07/26 05:35:41;;;;;;;;;;;;;;;22.38;52.93;100462.25;4969579;28;4028;-69
2023/07/26 05:38:08;;;;;;;;;;;;;;;22.40;52.91;100469.47;5000000;28;4068;-69
2023/07/26 05:40:35;;;;;;;;;;;;;;;22.40;52.75;100473.09;4967887;28;4256;-69
2023/07/26 05:43:01;;;;;;;;;;;;;;;22.41;53.20;100474.59;4967134;28;4188;-69
2023/07/26 05:45:28;;;;;;;;;;;;;;;22.41;53.38;100473.84;4969912;28;4172;-69
2023/07/26 05:47:54;;;;;;;;;;;;;;;22.40;53.19;100473.09;4973665;28;4520;-69
2023/07/26 05:50:21;;;;;;;;;;;;;;;22.40;53.16;100470.22;4970329;28;4247;-69
2023/07/26 05:52:51;;;;;;;;;;;;;;;22.39;53.15;100465.88;4966706;28;4174;-69
2023/07/26 05:55:17;;;;;;;;;;;;;;;22.40;53.25;100473.09;4970378;28;4914;-69
2023/07/26 05:57:44;;;;;;;;;;;;;;;22.39;53.63;100465.88;4966730;28;4422;-69
2023/07/26 06:00:13;;;;;;;;;;;;;;;22.40;53.39;100478.88;4968715;28;4199;-69
2023/07/26 06:02:39;;;;;;;;;;;;;;;22.41;53.37;100483.25;4970447;28;4205;-69
2023/07/26 06:05:06;;;;;;;;;;;;;;;22.40;53.63;100478.13;4966274;28;4104;-69
2023/07/26 06:07:32;;;;;;;;;;;;;;;22.40;53.49;100487.53;4971949;28;4468;-69
2023/07/26 06:09:59;;;;;;;;;;;;;;;22.40;53.84;100481.00;4968662;28;4400;-69
2023/07/26 06:12:25;;;;;;;;;;;;;;;22.40;53.84;100481.75;4969279;28;4046;-68
2023/07/26 06:14:52;;;;;;;;;;;;;;;22.41;53.74;100480.34;4966153;28;4360;-69
2023/07/26 06:17:18;;;;;;;;;;;;;;;22.41;53.68;100485.38;4964464;28;4346;-69
2023/07/26 06:19:44;;;;;;;;;;;;;;;22.41;53.65;100480.34;4964331;28;4079;-69
2023/07/26 06:22:12;;;;;;;;;;;;;;;22.43;53.76;100488.34;4969131;28;4294;-69
2023/07/26 06:24:38;;;;;;;;;;;;;;;22.41;53.56;100477.47;4969859;28;4143;-69
2023/07/26 06:27:05;;;;;;;;;;;;;;;22.42;53.59;100499.13;4974016;28;4264;-69
2023/07/26 06:29:33;;;;;;;;;;;;;;;22.42;53.82;100490.47;4973728;28;3960;-69
2023/07/26 06:31:59;;;;;;;;;;;;;;;22.43;53.90;100491.22;4966996;28;4206;-69
2023/07/26 06:34:26;;;;;;;;;;;;;;;22.42;53.76;100481.09;4967238;28;4066;-69
2023/07/26 06:36:52;;;;;;;;;;;;;;;22.42;53.89;100484.69;4967728;28;4423;-69
2023/07/26 06:39:19;;;;;;;;;;;;;;;22.38;53.82;100487.47;4968805;28;4024;-70
2023/07/26 06:41:45;;;;;;;;;;;;;;;22.34;53.29;100484.47;4968463;28;4077;-69
2023/07/26 06:44:12;;;;;;;;;;;;;;;22.30;53.03;100475.66;4968557;28;4180;-69
2023/07/26 06:46:39;;;;;;;;;;;;;;;22.28;52.96;100478.47;4966932;28;4141;-68
2023/07/26 06:49:05;;;;;;;;;;;;;;;22.34;52.87;100484.47;4967976;28;4502;-69
2023/07/26 06:51:32;;;;;;;;;;;;;;;22.32;52.94;100490.16;4971473;28;4049;-69
2023/07/26 06:53:58;;;;;;;;;;;;;;;22.33;52.59;100491.63;4970930;28;4145;-69
2023/07/26 06:56:25;;;;;;;;;;;;;;;22.23;52.69;100494.91;4966272;28;4185;-69
2023/07/26 06:58:52;;;;;;;;;;;;;;;22.26;52.21;100495.72;4971602;28;4445;-69
2023/07/26 07:01:18;;;;;;;;;;;;;;;22.29;51.88;100486.47;4965340;28;4120;-69
2023/07/26 07:03:44;;;;;;;;;;;;;;;22.28;51.83;100490.75;4971557;28;4149;-69
2023/07/26 07:06:11;;;;;;;;;;;;;;;22.25;51.42;100488.50;4975451;28;3933;-69
2023/07/26 07:08:38;;;;;;;;;;;;;;;22.23;51.34;100489.16;4967303;28;4047;-69
2023/07/26 07:11:05;;;;;;;;;;;;;;;22.23;50.85;100491.31;4971737;28;4171;-69
2023/07/26 07:13:35;;;;;;;;;;;;;;;22.24;50.79;100495.66;4970359;28;4065;-69
2023/07/26 07:16:03;;;;;;;;;;;;;;;22.33;50.61;100500.28;4973529;28;4027;-69
2023/07/26 07:18:30;;;;;;;;;;;;;;;22.27;50.82;100500.09;4974897;28;4365;-68
2023/07/26 07:21:00;;;;;;;;;;;;;;;22.22;50.65;100504.22;4969867;28;4171;-69
2023/07/26 07:23:27;;;;;;;;;;;;;;;22.21;50.29;100502.75;4971576;28;4233;-68
2023/07/26 07:25:53;;;;;;;;;;;;;;;22.24;50.20;100498.53;4969357;28;4262;-69
2023/07/26 07:28:20;;;;;;;;;;;;;;;22.22;50.12;100507.13;4964877;28;3946;-71
2023/07/26 07:30:46;;;;;;;;;;;;;;;21.44;50.72;100510.94;4970696;28;3963;-66
2023/07/26 07:33:13;;;;;;;;;;;;;;;20.42;52.63;100504.81;4968637;28;4207;-66
2023/07/26 07:35:40;;;;;;;;;;;;;;;20.42;52.65;100513.44;4966853;28;4063;-66
2023/07/26 07:38:06;;;;;;;;;;;;;;;20.08;52.92;100513.50;4972367;28;4318;-66
2023/07/26 07:40:33;;;;;;;;;;;;;;;20.59;52.62;100500.50;4968712;28;4000;-66
2023/07/26 07:42:59;;;;;;;;;;;;;;;20.76;51.18;100501.16;4968097;28;4598;-64
2023/07/26 07:45:25;;;;;;;;;;;;;;;20.88;51.29;100508.09;4967120;28;4080;-66
2023/07/26 07:47:52;;;;;;;;;;;;;;;20.49;51.57;100515.19;4967736;28;4137;-65
2023/07/26 07:50:18;;;;;;;;;;;;;;;20.63;51.50;100511.41;4968492;28;4111;-66
2023/07/26 07:52:46;;;;;;;;;;;;;;;20.40;50.87;100521.25;4967864;28;4037;-67
2023/07/26 07:55:12;;;;;;;;;;;;;;;20.56;50.86;100515.44;4968663;28;4287;-67
2023/07/26 07:57:39;;;;;;;;;;;;;;;20.66;50.99;100510.84;4968764;28;4090;-66
2023/07/26 08:00:09;;;;;;;;;;;;;;;20.79;51.07;100517.81;4970718;28;3914;-67
2023/07/26 08:02:38;;;;;;;;;;;;;;;20.89;50.94;100512.47;4967069;28;4126;-70
2023/07/26 08:05:04;;;;;;;;;;;;;;;21.28;50.38;100513.94;4971284;28;4193;-66
2023/07/26 08:07:31;;;;;;;;;;;;;;;21.49;50.38;100515.44;4968698;28;4110;-66
2023/07/26 08:09:57;;;;;;;;;;;;;;;21.59;49.96;100512.16;4967580;28;4274;-67
2023/07/26 08:12:24;;;;;;;;;;;;;;;21.66;50.34;100513.88;4970691;28;4037;-67
2023/07/26 08:14:50;;;;;;;;;;;;;;;21.71;50.17;100515.47;4970888;28;4439;-67
2023/07/26 08:17:17;;;;;;;;;;;;;;;21.75;49.97;100506.97;4969216;28;4178;-67
2023/07/26 08:19:43;;;;;;;;;;;;;;;21.80;50.17;100507.13;4965519;28;3999;-67
2023/07/26 08:22:10;;;;;;;;;;;;;;;21.83;50.04;100511.53;4966282;28;4167;-67
2023/07/26 08:24:37;;;;;;;;;;;;;;;21.88;49.65;100516.06;4973690;28;4259;-67
2023/07/26 08:27:06;;;;;;;;;;;;;;;21.90;49.89;100522.63;4967659;28;4148;-67
2023/07/26 08:29:33;;;;;;;;;;;;;;;21.92;50.25;100519.06;4969233;28;4571;-66
2023/07/26 08:31:59;;;;;;;;;;;;;;;21.94;50.11;100516.25;4969633;28;4012;-67
2023/07/26 08:34:26;;;;;;;;;;;;;;;21.95;50.47;100512.72;4970059;28;4213;-67
2023/07/26 08:36:52;;;;;;;;;;;;;;;21.95;50.30;100518.47;4971635;28;4050;-67
2023/07/26 08:39:18;;;;;;;;;;;;;;;21.99;49.91;100517.91;4969801;28;4188;-67
2023/07/26 08:42:01;;;;;;;;;;;;;;;22.00;50.39;100524.38;4972596;28;3935;-67
2023/07/26 08:44:28;;;;;;;;;;;;;;;22.01;50.19;100515.06;4969450;28;4105;-67
2023/07/26 08:46:54;;;;;;;;;;;;;;;22.04;50.24;100516.63;4973556;28;4070;-67
2023/07/26 08:49:21;;;;;;;;;;;;;;;22.04;50.26;100522.38;4971118;28;4038;-67
2023/07/26 08:51:47;;;;;;;;;;;;;;;22.05;50.23;100515.19;4970929;28;3986;-67
2023/07/26 08:54:13;;;;;;;;;;;;;;;22.07;50.45;100518.16;4976923;28;4091;-67
2023/07/26 08:56:40;;;;;;;;;;;;;;;22.06;50.38;100519.56;4975922;28;4475;-67
2023/07/26 08:59:07;;;;;;;;;;;;;;;22.08;50.49;100522.53;4968424;28;4185;-67
2023/07/26 09:01:33;;;;;;;;;;;;;;;22.09;50.63;100520.38;4969929;28;3943;-67
2023/07/26 09:04:16;;;;;;;;;;;;;;;22.10;50.63;100522.56;4974661;28;4058;-67
2023/07/26 09:06:44;;;;;;;;;;;;;;;22.10;50.67;100522.56;4969746;28;4290;-67
2023/07/26 09:09:11;;;;;;;;;;;;;;;22.13;50.66;100514.75;4966250;28;3987;-67
2023/07/26 09:11:38;;;;;;;;;;;;;;;22.12;50.75;100514.00;4977491;28;4532;-67
2023/07/26 09:14:05;;;;;;;;;;;;;;;22.15;50.66;100520.56;4975923;28;4144;-67
2023/07/26 09:16:31;;;;;;;;;;;;;;;22.15;50.98;100524.22;4966598;28;4160;-67
2023/07/26 09:18:59;;;;;;;;;;;;;;;22.16;50.96;100524.94;4970045;28;4262;-67
2023/07/26 09:21:25;;;;;;;;;;;;;;;22.17;50.99;100521.41;4970304;28;4036;-67
2023/07/26 09:23:52;;;;;;;;;;;;;;;22.18;51.11;100528.63;4974970;28;4192;-67
2023/07/26 09:26:35;;;;;;;;;;;;;;;22.20;50.90;100524.34;4970215;28;4179;-67
2023/07/26 09:29:02;;;;;;;;;;;;;;;22.20;51.17;100518.59;4976074;28;4303;-67
2023/07/26 09:31:29;;;;;;;;;;;;;;;22.20;50.99;100527.97;4974109;28;4081;-67
2023/07/26 09:33:56;;;;;;;;;;;;;;;22.21;51.14;100525.81;4973102;28;4223;-67
2023/07/26 09:36:23;;;;;;;;;;;;;;;22.22;50.99;100518.66;4972996;28;4130;-67
2023/07/26 09:38:49;;;;;;;;;;;;;;;22.21;51.09;100514.28;4968711;28;4899;-67
2023/07/26 09:41:23;;;;;;;;;;;;;;;22.22;51.05;100519.41;4973226;28;4531;-67
2023/07/26 09:43:49;;;;;;;;;;;;;;;22.23;51.10;100518.00;4973798;28;4405;-67
2023/07/26 09:46:23;;;;;;;;;;;;;;;22.24;51.13;100518.72;4974666;28;4449;-67
2023/07/26 09:48:58;;;;;;;;;;;;;;;22.25;51.45;100520.22;4973935;28;4080;-67
2023/07/26 09:51:29;;;;;;;;;;;;;;;22.25;51.44;100514.44;4978424;28;4229;-63
2023/07/26 09:53:57;;;;;;;;;;;;;;;22.25;51.84;100511.56;4975356;28;5619;-69
2023/07/26 09:56:24;;;;;;;;;;;;;;;22.25;51.36;100509.41;4988913;28;4175;-69
2023/07/26 09:58:50;;;;;;;;;;;;;;;22.26;51.56;100513.03;4987576;28;4021;-69
2023/07/26 10:01:17;;;;;;;;;;;;;;;22.26;51.59;100522.41;4972632;28;4110;-69
2023/07/26 10:03:45;;;;;;;;;;;;;;;22.28;51.57;100501.56;4973833;28;4178;-69
2023/07/26 10:06:11;;;;;;;;;;;;;;;22.28;51.60;100501.56;4974852;28;4116;-69
2023/07/26 10:08:41;;;;;;;;;;;;;;;22.27;51.65;100500.81;4990345;28;3900;-69
2023/07/26 10:11:07;;;;;;;;;;;;;;;22.29;51.84;100492.25;4971961;28;4105;-69
2023/07/26 10:13:33;;;;;;;;;;;;;;;22.30;51.96;100492.97;4968921;28;4959;-69
2023/07/26 10:16:00;;;;;;;;;;;;;;;22.30;51.83;100490.09;4975370;28;4130;-69
2023/07/26 10:18:26;;;;;;;;;;;;;;;22.30;51.73;100499.47;4974363;28;4138;-69
2023/07/26 10:20:54;;;;;;;;;;;;;;;22.30;52.12;100492.97;4968752;28;4186;-69
2023/07/26 10:23:21;;;;;;;;;;;;;;;22.31;51.92;100494.44;4973927;28;4127;-69
2023/07/26 10:25:47;;;;;;;;;;;;;;;22.32;51.75;100501.69;4973833;28;4286;-68
2023/07/26 10:28:14;;;;;;;;;;;;;;;22.32;51.68;100502.44;4972916;28;4086;-69
2023/07/26 10:30:40;;;;;;;;;;;;;;;22.32;51.87;100490.16;4972423;28;3997;-69
2023/07/26 10:33:10;;;;;;;;;;;;;;;22.33;52.19;100497.38;4973355;28;4304;-69
2023/07/26 10:35:37;;;;;;;;;;;;;;;22.32;51.87;100493.03;4972013;28;4449;-69
2023/07/26 10:38:03;;;;;;;;;;;;;;;22.33;51.94;100491.63;4968489;28;4458;-69
2023/07/26 10:40:36;;;;;;;;;;;;;;;22.31;52.06;100486.53;4977050;28;4146;-70
2023/07/26 10:43:21;;;;;;;;;;;;;;;22.18;51.35;100493.28;4969826;28;4181;-70
2023/07/26 10:45:48;;;;;;;;;;;;;;;22.14;50.23;100491.00;4968820;28;4144;-70
2023/07/26 10:48:27;;;;;;;;;;;;;;;22.06;48.47;100493.63;4985700;28;5389;-71
2023/07/26 10:50:57;;;;;;;;;;;;;;;22.12;48.58;100490.19;4971282;28;5191;-70
2023/07/26 10:53:30;;;;;;;;;;;;;;;22.16;47.75;100491.06;4969616;28;4329;-75
2023/07/26 10:56:09;;;;;;;;;;;;;;;22.16;47.76;100493.94;4964470;28;4198;-68
2023/07/26 10:58:35;;;;;;;;;;;;;;;22.18;48.96;100494.03;4969675;28;4102;-67
2023/07/26 11:01:04;;;;;;;;;;;;;;;22.21;49.46;100491.19;4970006;28;4104;-67
2023/07/26 11:03:31;;;;;;;;;;;;;;;22.29;49.16;100495.13;4971118;28;4136;-67
2023/07/26 11:05:57;;;;;;;;;;;;;;;22.28;49.67;100501.56;4971178;28;4112;-68
2023/07/26 11:08:47;;;;;;;;;;;;;;;22.29;49.50;100497.28;4970174;28;4128;-74
2023/07/26 11:11:16;;;;;;;;;;;;;;;22.33;49.55;100485.84;4967335;28;4981;-68
2023/07/26 11:13:43;;;;;;;;;;;;;;;22.31;49.88;100483.66;4989031;28;4582;-67
2023/07/26 11:16:09;;;;;;;;;;;;;;;22.34;50.05;100487.34;4969501;28;4389;-68
2023/07/26 11:18:42;;;;;;;;;;;;;;;22.32;49.76;100490.88;4974642;28;4094;-68
2023/07/26 11:21:13;;;;;;;;;;;;;;;22.36;49.89;100490.28;4970162;28;4146;-68
2023/07/26 11:23:39;;;;;;;;;;;;;;;22.40;49.96;100481.00;4969599;28;4038;-68
2023/07/26 11:26:06;;;;;;;;;;;;;;;22.42;49.80;100478.94;4968372;28;4367;-69
2023/07/26 11:28:32;;;;;;;;;;;;;;;22.38;49.93;100465.13;4969763;28;4116;-68
2023/07/26 11:30:59;;;;;;;;;;;;;;;22.37;50.28;100477.34;4967294;28;4164;-69
2023/07/26 11:33:26;;;;;;;;;;;;;;;22.35;50.44;100488.81;4968801;28;4018;-69
2023/07/26 11:35:52;;;;;;;;;;;;;;;22.37;51.09;100491.75;4971199;28;4096;-68
2023/07/26 11:38:19;;;;;;;;;;;;;;;22.37;52.15;100486.72;4970844;28;4452;-68
2023/07/26 11:40:45;;;;;;;;;;;;;;;22.37;52.77;100486.00;4972666;28;4098;-69
2023/07/26 11:43:12;;;;;;;;;;;;;;;22.39;53.79;100491.81;4989540;28;4235;-68
2023/07/26 11:45:39;;;;;;;;;;;;;;;22.40;53.58;100484.63;4973708;28;4143;-69
2023/07/26 11:48:09;;;;;;;;;;;;;;;22.43;53.60;100483.31;4974840;28;4012;-68
2023/07/26 11:50:35;;;;;;;;;;;;;;;22.41;54.02;100482.50;4970347;28;4292;-68
2023/07/26 11:53:09;;;;;;;;;;;;;;;22.43;54.08;100477.53;4967890;28;4042;-68
2023/07/26 11:55:38;;;;;;;;;;;;;;;22.41;54.85;100468.81;4967542;28;4336;-68
2023/07/26 11:58:06;;;;;;;;;;;;;;;22.42;55.11;100476.03;4968349;28;4129;-68
2023/07/26 12:00:33;;;;;;;;;;;;;;;22.45;55.11;100474.72;4985539;28;5135;-68
2023/07/26 12:03:03;;;;;;;;;;;;;;;22.46;55.18;100464.63;4986598;28;4139;-68
2023/07/26 12:05:29;;;;;;;;;;;;;;;22.46;54.95;100469.69;4969324;28;3960;-68
2023/07/26 12:07:57;;;;;;;;;;;;;;;22.46;54.83;100470.41;4971218;28;4127;-68
2023/07/26 12:10:35;;;;;;;;;;;;;;;22.48;54.94;100461.81;4971047;28;4177;-68
2023/07/26 12:13:07;;;;;;;;;;;;;;;22.49;55.22;100463.28;4967484;28;5059;-68
2023/07/26 12:15:50;;;;;;;;;;;;;;;22.48;54.75;100464.72;4972521;28;4190;-68
2023/07/26 12:18:17;;;;;;;;;;;;;;;22.48;54.10;100470.47;4974633;28;4152;-68
2023/07/26 12:20:56;;;;;;;;;;;;;;;22.46;54.19;100470.41;4986695;28;4058;-67
2023/07/26 12:23:48;;;;;;;;;;;;;;;22.44;54.00;100461.69;4966600;28;4121;-67
2023/07/26 12:26:14;;;;;;;;;;;;;;;22.48;53.73;100461.81;4971207;28;4326;-68
2023/07/26 12:28:42;;;;;;;;;;;;;;;22.51;54.10;100459.72;4968847;28;4015;-68
2023/07/26 12:31:08;;;;;;;;;;;;;;;22.50;53.92;100469.81;4972647;28;4090;-68
2023/07/26 12:33:35;;;;;;;;;;;;;;;22.51;53.64;100460.47;4983279;28;4292;-68
2023/07/26 12:36:01;;;;;;;;;;;;;;;22.51;53.60;100460.47;4985279;28;5096;-68
2023/07/26 12:38:28;;;;;;;;;;;;;;;22.52;53.32;100450.41;4968456;28;4486;-67
2023/07/26 12:40:55;;;;;;;;;;;;;;;22.53;53.45;100469.19;4971015;28;4150;-68
2023/07/26 12:43:28;;;;;;;;;;;;;;;22.52;52.84;100470.63;4971837;28;4112;-68
2023/07/26 12:45:54;;;;;;;;;;;;;;;22.51;52.53;100477.78;4962180;28;4151;-68
2023/07/26 12:48:22;;;;;;;;;;;;;;;22.51;51.47;100495.09;4973096;28;4109;-68